createdAt,value
2023-05-09T00:02:08.207Z,14.14
2023-05-09T00:04:35.558Z,14.24
2023-05-09T00:07:02.254Z,14.11
2023-05-09T00:09:28.839Z,14.11
2023-05-09T00:11:55.410Z,14.23
2023-05-09T00:14:22.016Z,14.17
2023-05-09T00:16:49.519Z,14.06
2023-05-09T00:19:16.209Z,13.78
2023-05-09T00:21:43.087Z,14.12
2023-05-09T00:24:09.645Z,14.13
2023-05-09T00:26:36.161Z,13.97
2023-05-09T00:29:02.748Z,14.09
2023-05-09T00:31:29.357Z,13.89
2023-05-09T00:33:55.963Z,13.71
2023-05-09T00:36:22.501Z,13.98
2023-05-09T00:38:49.195Z,13.87
2023-05-09T00:41:15.778Z,13.53
2023-05-09T00:43:42.316Z,13.86
2023-05-09T00:46:08.996Z,13.77
2023-05-09T00:48:36.011Z,13.65
2023-05-09T00:51:03.360Z,13.58
2023-05-09T00:53:30.021Z,13.54
2023-05-09T00:55:57.899Z,13.58
2023-05-09T00:58:24.535Z,13.48
2023-05-09T01:00:51.525Z,13.18
2023-05-09T01:03:18.508Z,13.44
2023-05-09T01:05:48.219Z,13.46
2023-05-09T01:08:31.504Z,13.50
2023-05-09T01:11:13.363Z,13.47
2023-05-09T01:13:58.663Z,13.42
2023-05-09T01:16:38.637Z,13.36
2023-05-09T01:19:37.762Z,13.39
2023-05-09T01:22:09.040Z,13.36
2023-05-09T01:25:01.799Z,13.31
2023-05-09T01:28:06.124Z,13.20
2023-05-09T01:30:36.020Z,13.04
2023-05-09T01:33:07.381Z,13.06
2023-05-09T01:35:37.640Z,13.01
2023-05-09T01:38:12.940Z,13.02
2023-05-09T01:40:42.268Z,13.02
2023-05-09T01:43:11.607Z,12.92
2023-05-09T01:45:39.588Z,12.96
2023-05-09T01:48:08.959Z,12.90
2023-05-09T01:50:36.255Z,12.84
2023-05-09T01:53:05.328Z,12.93
2023-05-09T01:55:34.386Z,12.82
2023-05-09T01:58:03.143Z,12.87
2023-05-09T02:00:32.190Z,12.32
2023-05-09T02:02:59.079Z,12.80
2023-05-09T02:05:28.375Z,12.72
2023-05-09T02:08:01.212Z,12.71
2023-05-09T02:10:28.890Z,12.69
2023-05-09T02:12:56.927Z,12.70
2023-05-09T02:15:23.862Z,12.72
2023-05-09T02:17:50.519Z,12.69
2023-05-09T02:20:17.423Z,12.68
2023-05-09T02:22:44.649Z,12.57
2023-05-09T02:25:15.494Z,12.61
2023-05-09T02:27:45.462Z,12.50
2023-05-09T02:30:23.449Z,12.46
2023-05-09T02:32:53.794Z,12.41
2023-05-09T02:35:22.194Z,12.39
2023-05-09T02:37:49.076Z,12.04
2023-05-09T02:40:15.721Z,12.33
2023-05-09T02:42:42.276Z,12.19
2023-05-09T02:45:10.695Z,12.19
2023-05-09T02:47:38.156Z,12.03
2023-05-09T02:50:06.061Z,11.74
2023-05-09T02:52:32.668Z,11.95
2023-05-09T02:54:59.252Z,11.90
2023-05-09T02:57:26.052Z,11.87
2023-05-09T02:59:52.620Z,11.45
2023-05-09T03:02:19.311Z,10.51
2023-05-09T03:04:46.184Z,11.37
2023-05-09T03:07:12.753Z,11.24
2023-05-09T03:09:41.084Z,10.78
2023-05-09T03:12:08.181Z,11.09
2023-05-09T03:14:34.737Z,11.60
2023-05-09T03:17:01.286Z,11.67
2023-05-09T03:19:27.845Z,11.56
2023-05-09T03:21:54.563Z,11.60
2023-05-09T03:24:21.776Z,11.56
2023-05-09T03:26:48.326Z,11.54
2023-05-09T03:29:14.860Z,11.11
2023-05-09T03:31:41.505Z,11.57
2023-05-09T03:34:13.201Z,11.43
2023-05-09T03:36:39.787Z,11.16
2023-05-09T03:39:06.402Z,11.54
2023-05-09T03:41:32.988Z,11.41
2023-05-09T03:43:59.548Z,11.40
2023-05-09T03:46:26.131Z,11.47
2023-05-09T03:48:52.717Z,11.00
2023-05-09T03:51:21.462Z,11.44
2023-05-09T03:53:48.115Z,11.22
2023-05-09T03:56:14.786Z,11.53
2023-05-09T03:58:41.377Z,11.53
2023-05-09T04:01:08.038Z,11.41
2023-05-09T04:03:34.697Z,11.43
2023-05-09T04:06:01.541Z,11.47
2023-05-09T04:08:28.391Z,11.36
2023-05-09T04:10:54.985Z,11.21
2023-05-09T04:13:21.624Z,11.19
2023-05-09T04:15:48.214Z,11.38
2023-05-09T04:18:15.060Z,11.50
2023-05-09T04:20:41.609Z,11.05
2023-05-09T04:23:08.469Z,11.44
2023-05-09T04:25:35.638Z,11.52
2023-05-09T04:28:02.536Z,11.53
2023-05-09T04:30:29.348Z,11.47
2023-05-09T04:32:56.237Z,11.43
2023-05-09T04:35:23.100Z,11.49
2023-05-09T04:37:50.086Z,11.27
2023-05-09T04:40:17.053Z,11.55
2023-05-09T04:42:43.693Z,11.65
2023-05-09T04:45:11.942Z,11.51
2023-05-09T04:47:38.854Z,11.50
2023-05-09T04:50:06.060Z,11.78
2023-05-09T04:52:32.623Z,11.66
2023-05-09T04:54:59.258Z,11.73
2023-05-09T04:57:26.002Z,11.85
2023-05-09T04:59:53.150Z,11.79
2023-05-09T05:02:21.376Z,11.98
2023-05-09T05:04:48.268Z,11.40
2023-05-09T05:07:14.898Z,12.06
2023-05-09T05:09:41.492Z,12.00
2023-05-09T05:12:09.741Z,12.17
2023-05-09T05:14:36.652Z,12.06
2023-05-09T05:17:03.537Z,11.94
2023-05-09T05:19:30.223Z,12.08
2023-05-09T05:21:56.801Z,12.18
2023-05-09T05:24:23.368Z,12.22
2023-05-09T05:26:49.947Z,12.21
2023-05-09T05:29:17.768Z,12.25
2023-05-09T05:31:44.341Z,12.26
2023-05-09T05:34:11.020Z,12.32
2023-05-09T05:36:37.625Z,12.33
2023-05-09T05:39:04.613Z,12.03
2023-05-09T05:41:31.820Z,12.35
2023-05-09T05:43:58.448Z,12.47
2023-05-09T05:46:25.139Z,12.62
2023-05-09T05:48:51.776Z,12.41
2023-05-09T05:51:18.408Z,12.16
2023-05-09T05:53:45.000Z,12.95
2023-05-09T05:56:11.533Z,12.91
2023-05-09T05:58:38.485Z,13.01
2023-05-09T06:01:05.245Z,13.18
2023-05-09T06:03:32.357Z,12.88
2023-05-09T06:05:59.653Z,12.71
2023-05-09T06:08:26.359Z,12.77
2023-05-09T06:10:53.072Z,12.87
2023-05-09T06:13:19.710Z,12.72
2023-05-09T06:15:46.455Z,13.04
2023-05-09T06:18:13.406Z,13.00
2023-05-09T06:20:40.090Z,13.26
2023-05-09T06:23:07.159Z,13.23
2023-05-09T06:25:33.874Z,13.14
2023-05-09T06:28:00.727Z,13.52
2023-05-09T06:30:27.407Z,13.54
2023-05-09T06:32:55.143Z,13.41
2023-05-09T06:35:22.153Z,13.35
2023-05-09T06:37:49.276Z,13.54
2023-05-09T06:40:16.522Z,13.70
2023-05-09T06:42:43.131Z,13.68
2023-05-09T06:45:10.184Z,13.77
2023-05-09T06:47:36.794Z,13.41
2023-05-09T06:50:03.567Z,13.74
2023-05-09T06:52:30.440Z,13.59
2023-05-09T06:54:56.992Z,13.96
2023-05-09T06:57:23.853Z,13.39
2023-05-09T06:59:50.853Z,13.74
2023-05-09T07:02:17.431Z,14.17
2023-05-09T07:04:44.118Z,14.22
2023-05-09T07:07:10.671Z,14.75
2023-05-09T07:09:37.295Z,14.31
2023-05-09T07:12:04.244Z,14.61
2023-05-09T07:14:30.890Z,14.82
2023-05-09T07:17:09.883Z,15.28
2023-05-09T07:19:41.425Z,14.79
2023-05-09T07:22:08.153Z,14.91
2023-05-09T07:24:34.759Z,15.16
2023-05-09T07:27:04.238Z,15.46
2023-05-09T07:29:30.853Z,15.50
2023-05-09T07:31:57.599Z,15.51
2023-05-09T07:34:25.625Z,15.32
2023-05-09T07:36:52.320Z,15.94
2023-05-09T07:39:18.975Z,16.29
2023-05-09T07:41:46.437Z,16.13
2023-05-09T07:44:15.282Z,16.34
2023-05-09T07:46:42.265Z,16.37
2023-05-09T07:49:09.277Z,17.04
2023-05-09T07:51:36.083Z,16.78
2023-05-09T07:54:02.756Z,16.84
2023-05-09T07:56:29.557Z,17.08
2023-05-09T07:58:56.129Z,17.39
2023-05-09T08:01:22.691Z,17.04
2023-05-09T08:03:49.413Z,17.26
2023-05-09T08:06:16.156Z,17.41
2023-05-09T08:08:42.766Z,17.54
2023-05-09T08:11:09.530Z,17.43
2023-05-09T08:13:36.515Z,17.93
2023-05-09T08:16:03.170Z,18.24
2023-05-09T08:18:29.978Z,18.45
2023-05-09T08:20:56.872Z,18.02
2023-05-09T08:23:23.651Z,18.34
2023-05-09T08:25:54.345Z,18.38
2023-05-09T08:28:24.487Z,18.73
2023-05-09T08:30:52.182Z,18.05
2023-05-09T08:33:19.149Z,18.57
2023-05-09T08:35:50.251Z,18.26
2023-05-09T08:38:16.887Z,18.31
2023-05-09T08:40:43.522Z,18.45
2023-05-09T08:43:11.894Z,18.42
2023-05-09T08:45:52.050Z,18.38
2023-05-09T08:48:18.967Z,19.07
2023-05-09T08:50:45.855Z,19.17
2023-05-09T08:53:12.802Z,19.55
2023-05-09T08:55:39.755Z,19.62
2023-05-09T08:58:06.847Z,19.84
2023-05-09T09:00:34.019Z,19.77
2023-05-09T09:03:04.308Z,20.11
2023-05-09T09:05:41.301Z,19.80
2023-05-09T09:08:09.958Z,20.10
2023-05-09T09:10:42.208Z,19.93
2023-05-09T09:13:12.672Z,19.84
2023-05-09T09:15:41.618Z,20.34
2023-05-09T09:18:12.479Z,20.30
2023-05-09T09:20:48.408Z,20.40
2023-05-09T09:23:19.144Z,20.13
2023-05-09T09:25:49.333Z,20.62
2023-05-09T09:28:15.893Z,20.53
2023-05-09T09:30:48.033Z,20.91
2023-05-09T09:33:26.044Z,21.10
2023-05-09T09:35:54.610Z,21.28
2023-05-09T09:38:22.259Z,21.42
2023-05-09T09:40:51.651Z,21.25
2023-05-09T09:43:18.822Z,21.24
2023-05-09T09:45:49.530Z,21.15
2023-05-09T09:48:16.351Z,20.91
2023-05-09T09:50:43.344Z,21.37
2023-05-09T09:53:10.019Z,21.14
2023-05-09T09:55:36.646Z,21.32
2023-05-09T09:58:03.358Z,21.31
2023-05-09T10:00:30.417Z,21.01
2023-05-09T10:02:59.223Z,21.17
2023-05-09T10:05:28.752Z,21.04
2023-05-09T10:07:57.380Z,21.74
2023-05-09T10:10:26.941Z,22.03
2023-05-09T10:12:57.456Z,21.58
2023-05-09T10:15:24.719Z,21.75
2023-05-09T10:17:56.174Z,22.24
2023-05-09T10:20:24.088Z,22.35
2023-05-09T10:22:58.060Z,22.18
2023-05-09T10:25:45.036Z,22.51
2023-05-09T10:28:13.725Z,22.67
2023-05-09T10:30:50.589Z,22.96
2023-05-09T10:33:24.344Z,22.34
2023-05-09T10:35:52.308Z,22.79
2023-05-09T10:38:19.202Z,22.77
2023-05-09T10:40:48.179Z,23.32
2023-05-09T10:43:14.883Z,23.32
2023-05-09T10:45:42.823Z,22.85
2023-05-09T10:48:10.003Z,23.58
2023-05-09T10:50:38.189Z,24.62
2023-05-09T10:53:04.957Z,25.47
2023-05-09T10:55:48.104Z,26.82
2023-05-09T10:58:28.040Z,27.95
2023-05-09T11:00:57.271Z,28.49
2023-05-09T11:03:26.093Z,30.90
2023-05-09T11:05:54.886Z,30.88
2023-05-09T11:08:26.875Z,31.12
2023-05-09T11:10:55.199Z,31.27
2023-05-09T11:13:25.205Z,31.70
2023-05-09T11:16:00.887Z,31.75
2023-05-09T11:18:29.161Z,30.67
2023-05-09T11:20:56.457Z,31.44
2023-05-09T11:23:28.127Z,31.63
2023-05-09T11:26:05.284Z,31.50
2023-05-09T11:28:34.996Z,31.05
2023-05-09T11:31:22.021Z,30.48
2023-05-09T11:33:55.216Z,29.63
2023-05-09T11:36:30.217Z,29.38
2023-05-09T11:39:02.761Z,28.38
2023-05-09T11:41:30.150Z,28.31
2023-05-09T11:43:59.549Z,28.07
2023-05-09T11:46:27.396Z,27.15
2023-05-09T11:48:54.519Z,26.90
2023-05-09T11:51:21.204Z,27.02
2023-05-09T11:53:51.582Z,26.86
2023-05-09T11:56:18.319Z,27.07
2023-05-09T11:58:46.863Z,26.52
2023-05-09T12:01:13.714Z,26.71
2023-05-09T12:03:46.543Z,27.77
2023-05-09T12:06:18.392Z,29.63
2023-05-09T12:08:45.845Z,31.07
2023-05-09T12:11:12.899Z,31.46
2023-05-09T12:13:50.346Z,31.87
2023-05-09T12:16:18.278Z,31.13
2023-05-09T12:18:50.459Z,30.27
2023-05-09T12:21:21.910Z,30.99
2023-05-09T12:23:51.262Z,31.81
2023-05-09T12:26:19.885Z,31.69
2023-05-09T12:28:48.882Z,32.85
2023-05-09T12:31:17.128Z,33.28
2023-05-09T12:33:43.957Z,32.96
2023-05-09T12:36:12.611Z,33.11
2023-05-09T12:38:40.090Z,32.43
2023-05-09T12:41:29.571Z,34.22
2023-05-09T12:43:58.483Z,34.61
2023-05-09T12:46:25.830Z,36.02
2023-05-09T12:48:52.656Z,34.95
2023-05-09T12:51:21.078Z,34.50
2023-05-09T12:53:48.141Z,35.20
2023-05-09T12:56:17.259Z,36.61
2023-05-09T12:58:52.421Z,34.59
2023-05-09T13:01:29.148Z,32.34
2023-05-09T13:04:04.252Z,35.89
2023-05-09T13:06:31.357Z,33.80
2023-05-09T13:09:00.399Z,32.99
2023-05-09T13:11:27.260Z,36.46
2023-05-09T13:13:57.212Z,38.22
2023-05-09T13:16:24.410Z,39.13
2023-05-09T13:18:51.027Z,39.77
2023-05-09T13:21:17.775Z,39.75
2023-05-09T13:23:45.644Z,38.76
2023-05-09T13:26:12.512Z,38.88
2023-05-09T13:28:39.093Z,39.93
2023-05-09T13:31:05.750Z,39.07
2023-05-09T13:33:32.496Z,39.48
2023-05-09T13:35:59.112Z,39.79
2023-05-09T13:38:25.930Z,38.43
2023-05-09T13:40:52.538Z,37.77
2023-05-09T13:43:19.133Z,37.08
2023-05-09T13:45:45.929Z,35.38
2023-05-09T13:48:12.649Z,35.90
2023-05-09T13:50:39.357Z,34.79
2023-05-09T13:53:05.974Z,34.50
2023-05-09T13:55:32.618Z,31.83
2023-05-09T13:57:59.216Z,32.75
2023-05-09T14:00:26.841Z,33.44
2023-05-09T14:02:53.573Z,33.92
2023-05-09T14:05:20.197Z,33.94
2023-05-09T14:07:46.874Z,33.54
2023-05-09T14:10:13.470Z,33.85
2023-05-09T14:12:40.777Z,35.50
2023-05-09T14:15:08.693Z,35.78
2023-05-09T14:17:35.465Z,35.16
2023-05-09T14:20:02.333Z,33.77
2023-05-09T14:22:29.139Z,35.76
2023-05-09T14:24:57.586Z,37.29
2023-05-09T14:27:25.266Z,36.99
2023-05-09T14:29:52.111Z,37.74
2023-05-09T14:32:18.827Z,39.21
2023-05-09T14:34:46.087Z,38.68
2023-05-09T14:37:15.642Z,40.05
2023-05-09T14:39:43.944Z,42.02
2023-05-09T14:42:11.727Z,41.03
2023-05-09T14:44:38.839Z,42.00
2023-05-09T14:47:06.110Z,41.62
2023-05-09T14:49:33.340Z,41.86
2023-05-09T14:52:00.344Z,39.51
2023-05-09T14:54:27.251Z,40.89
2023-05-09T14:56:53.874Z,41.31
2023-05-09T14:59:20.562Z,39.05
2023-05-09T15:01:47.171Z,40.71
2023-05-09T15:04:13.775Z,43.12
2023-05-09T15:06:41.151Z,43.16
2023-05-09T15:09:08.090Z,42.43
2023-05-09T15:11:46.948Z,41.77
2023-05-09T15:14:15.033Z,42.59
2023-05-09T15:16:42.017Z,42.03
2023-05-09T15:19:08.889Z,40.91
2023-05-09T15:21:35.503Z,40.47
2023-05-09T15:24:02.595Z,39.06
2023-05-09T15:26:29.420Z,40.24
2023-05-09T15:28:56.105Z,39.19
2023-05-09T15:31:24.176Z,40.16
2023-05-09T15:33:51.108Z,40.14
2023-05-09T15:36:17.798Z,41.47
2023-05-09T15:38:48.388Z,41.32
2023-05-09T15:41:15.565Z,39.84
2023-05-09T15:43:42.236Z,40.90
2023-05-09T15:46:08.993Z,40.17
2023-05-09T15:48:35.777Z,39.44
2023-05-09T15:51:02.871Z,39.83
2023-05-09T15:53:30.181Z,40.29
2023-05-09T15:55:57.212Z,38.55
2023-05-09T15:58:23.757Z,36.85
2023-05-09T16:00:50.472Z,37.17
2023-05-09T16:03:17.583Z,37.76
2023-05-09T16:05:44.618Z,36.90
2023-05-09T16:08:11.415Z,36.61
2023-05-09T16:10:38.075Z,37.86
2023-05-09T16:13:05.943Z,37.45
2023-05-09T16:15:32.849Z,37.95
2023-05-09T16:17:59.504Z,36.46
2023-05-09T16:20:26.110Z,34.90
2023-05-09T16:22:52.854Z,34.04
2023-05-09T16:25:19.570Z,31.51
2023-05-09T16:27:46.267Z,30.41
2023-05-09T16:30:13.695Z,30.03
2023-05-09T16:32:40.455Z,30.26
2023-05-09T16:35:07.851Z,29.22
2023-05-09T16:37:35.680Z,28.66
2023-05-09T16:40:03.019Z,27.78
2023-05-09T16:42:29.804Z,27.25
2023-05-09T16:44:57.598Z,27.51
2023-05-09T16:47:24.338Z,27.36
2023-05-09T16:49:51.075Z,27.25
2023-05-09T16:52:18.579Z,26.79
2023-05-09T16:54:45.239Z,26.48
2023-05-09T16:57:12.018Z,26.21
2023-05-09T16:59:38.609Z,25.77
2023-05-09T17:02:05.391Z,25.70
2023-05-09T17:04:32.101Z,25.66
2023-05-09T17:06:58.762Z,25.54
2023-05-09T17:09:25.433Z,24.78
2023-05-09T17:11:52.093Z,24.68
2023-05-09T17:14:18.788Z,24.77
2023-05-09T17:16:45.461Z,24.21
2023-05-09T17:19:12.207Z,24.11
2023-05-09T17:21:41.751Z,24.12
2023-05-09T17:24:09.917Z,23.40
2023-05-09T17:26:36.481Z,23.94
2023-05-09T17:29:03.859Z,23.28
2023-05-09T17:31:31.559Z,23.00
2023-05-09T17:33:58.317Z,23.18
2023-05-09T17:36:25.858Z,23.41
2023-05-09T17:38:52.544Z,23.16
2023-05-09T17:41:19.177Z,23.11
2023-05-09T17:43:45.814Z,23.28
2023-05-09T17:46:14.898Z,22.71
2023-05-09T17:48:42.260Z,22.66
2023-05-09T17:51:09.285Z,22.43
2023-05-09T17:53:35.912Z,22.49
2023-05-09T17:56:02.683Z,22.29
2023-05-09T17:58:30.054Z,22.51
2023-05-09T18:00:58.707Z,22.49
2023-05-09T18:03:29.254Z,22.43
2023-05-09T18:05:56.122Z,22.41
2023-05-09T18:08:22.941Z,21.15
2023-05-09T18:10:49.998Z,22.10
2023-05-09T18:13:17.246Z,22.13
2023-05-09T18:15:44.060Z,22.07
2023-05-09T18:18:12.852Z,22.00
2023-05-09T18:20:41.554Z,21.87
2023-05-09T18:23:08.286Z,21.91
2023-05-09T18:25:35.065Z,21.64
2023-05-09T18:28:01.658Z,21.66
2023-05-09T18:30:28.186Z,21.50
2023-05-09T18:32:54.824Z,21.05
2023-05-09T18:35:21.586Z,21.27
2023-05-09T18:37:48.185Z,21.28
2023-05-09T18:40:16.229Z,20.97
2023-05-09T18:42:43.023Z,20.93
2023-05-09T18:45:10.598Z,21.03
2023-05-09T18:47:38.398Z,20.42
2023-05-09T18:50:07.211Z,20.76
2023-05-09T18:52:34.563Z,20.42
2023-05-09T18:55:01.222Z,19.86
2023-05-09T18:57:28.423Z,20.40
2023-05-09T18:59:56.186Z,20.03
2023-05-09T19:02:23.699Z,20.18
2023-05-09T19:04:51.596Z,20.28
2023-05-09T19:07:18.389Z,20.06
2023-05-09T19:09:45.053Z,19.92
2023-05-09T19:12:11.689Z,19.37
2023-05-09T19:14:38.443Z,20.03
2023-05-09T19:17:05.973Z,19.96
2023-05-09T19:19:32.786Z,19.84
2023-05-09T19:22:00.834Z,19.53
2023-05-09T19:24:27.800Z,19.44
2023-05-09T19:26:54.362Z,19.73
2023-05-09T19:29:20.912Z,19.65
2023-05-09T19:31:47.480Z,19.67
2023-05-09T19:34:14.180Z,19.48
2023-05-09T19:36:40.907Z,19.51
2023-05-09T19:39:09.094Z,19.37
2023-05-09T19:41:35.736Z,19.17
2023-05-09T19:44:02.432Z,19.27
2023-05-09T19:46:29.088Z,18.92
2023-05-09T19:48:55.680Z,19.02
2023-05-09T19:51:22.308Z,18.92
2023-05-09T19:53:48.969Z,19.03
2023-05-09T19:56:15.738Z,18.75
2023-05-09T19:58:42.503Z,18.92
2023-05-09T20:01:09.626Z,18.89
2023-05-09T20:03:37.219Z,18.68
2023-05-09T20:06:04.143Z,18.77
2023-05-09T20:08:31.321Z,18.63
2023-05-09T20:10:59.433Z,18.72
2023-05-09T20:13:27.147Z,18.64
2023-05-09T20:15:53.914Z,18.65
2023-05-09T20:18:20.641Z,18.49
2023-05-09T20:20:47.346Z,18.46
2023-05-09T20:23:14.929Z,18.34
2023-05-09T20:25:41.550Z,18.00
2023-05-09T20:28:08.093Z,18.42
2023-05-09T20:30:34.654Z,18.05
2023-05-09T20:33:01.647Z,17.91
2023-05-09T20:35:28.204Z,18.36
2023-05-09T20:37:54.832Z,18.19
2023-05-09T20:40:21.376Z,18.22
2023-05-09T20:42:47.964Z,17.98
2023-05-09T20:45:14.525Z,18.04
2023-05-09T20:47:41.192Z,18.07
2023-05-09T20:50:08.409Z,18.04
2023-05-09T20:52:35.063Z,17.97
2023-05-09T20:55:02.108Z,17.93
2023-05-09T20:57:29.015Z,17.87
2023-05-09T20:59:55.836Z,17.51
2023-05-09T21:02:22.564Z,17.86
2023-05-09T21:04:49.228Z,17.59
2023-05-09T21:07:19.259Z,17.47
2023-05-09T21:09:49.891Z,17.73
2023-05-09T21:12:16.975Z,17.67
2023-05-09T21:14:44.862Z,17.59
2023-05-09T21:17:12.036Z,17.62
2023-05-09T21:19:38.876Z,17.61
2023-05-09T21:22:05.654Z,17.54
2023-05-09T21:24:32.301Z,17.27
2023-05-09T21:26:59.028Z,17.33
2023-05-09T21:29:25.599Z,17.11
2023-05-09T21:31:52.223Z,16.95
2023-05-09T21:34:18.916Z,16.82
2023-05-09T21:36:45.516Z,16.95
2023-05-09T21:39:12.210Z,16.51
2023-05-09T21:41:40.475Z,17.25
2023-05-09T21:44:07.942Z,17.23
2023-05-09T21:46:35.567Z,17.16
2023-05-09T21:49:02.330Z,16.90
2023-05-09T21:51:29.513Z,16.98
2023-05-09T21:53:56.071Z,16.99
2023-05-09T21:56:23.288Z,16.58
2023-05-09T21:58:50.255Z,16.94
2023-05-09T22:01:19.269Z,17.04
2023-05-09T22:03:46.272Z,16.89
2023-05-09T22:06:13.751Z,16.58
2023-05-09T22:08:40.681Z,16.88
2023-05-09T22:11:07.852Z,16.93
2023-05-09T22:13:36.025Z,16.91
2023-05-09T22:16:04.114Z,16.83
2023-05-09T22:18:31.503Z,16.63
2023-05-09T22:20:59.214Z,16.77
2023-05-09T22:23:25.961Z,16.72
2023-05-09T22:25:52.962Z,16.58
2023-05-09T22:28:19.665Z,16.69
2023-05-09T22:30:46.311Z,16.73
2023-05-09T22:33:13.046Z,16.75
2023-05-09T22:35:39.746Z,16.68
2023-05-09T22:38:06.668Z,16.43
2023-05-09T22:40:34.091Z,16.44
2023-05-09T22:43:00.704Z,16.66
2023-05-09T22:45:27.513Z,16.35
2023-05-09T22:47:54.069Z,16.49
2023-05-09T22:50:20.879Z,16.47
2023-05-09T22:52:47.570Z,16.47
2023-05-09T22:55:14.261Z,16.44
2023-05-09T22:57:41.620Z,16.43
2023-05-09T23:00:08.778Z,16.43
2023-05-09T23:02:35.539Z,16.41
2023-05-09T23:05:02.244Z,16.36
2023-05-09T23:07:28.815Z,16.44
2023-05-09T23:09:55.587Z,16.30
2023-05-09T23:12:22.276Z,16.30
2023-05-09T23:14:48.842Z,16.24
2023-05-09T23:17:15.503Z,16.17
2023-05-09T23:19:42.146Z,16.19
2023-05-09T23:22:08.852Z,16.12
2023-05-09T23:24:35.544Z,16.02
2023-05-09T23:27:02.911Z,15.63
2023-05-09T23:29:29.579Z,15.99
2023-05-09T23:31:56.618Z,15.68
2023-05-09T23:34:23.250Z,16.02
2023-05-09T23:36:49.775Z,15.94
2023-05-09T23:39:16.361Z,15.77
2023-05-09T23:41:43.290Z,15.79
2023-05-09T23:44:09.901Z,15.50
2023-05-09T23:46:36.604Z,15.83
2023-05-09T23:49:04.554Z,15.85
2023-05-09T23:51:31.133Z,15.81
2023-05-09T23:53:58.171Z,15.80
2023-05-09T23:56:25.504Z,15.69
2023-05-09T23:58:55.041Z,15.76
